sensor_id;sensor_type;location;lat;lon;timestamp;P1;durP1;ratioP1;P2;durP2;ratioP2
59786;SDS011;45672;51.612;5.536;2023-11-18T00:01:08;32.97;;;20.60;;
59786;SDS011;45672;51.612;5.536;2023-11-18T00:03:33;34.72;;;20.70;;
59786;SDS011;45672;51.612;5.536;2023-11-18T00:05:59;34.60;;;20.95;;
59786;SDS011;45672;51.612;5.536;2023-11-18T00:08:24;38.15;;;21.70;;
59786;SDS011;45672;51.612;5.536;2023-11-18T00:10:50;31.00;;;20.35;;
59786;SDS011;45672;51.612;5.536;2023-11-18T00:13:18;34.38;;;21.75;;
59786;SDS011;45672;51.612;5.536;2023-11-18T00:15:44;34.85;;;21.08;;
59786;SDS011;45672;51.612;5.536;2023-11-18T00:18:11;34.38;;;20.08;;
59786;SDS011;45672;51.612;5.536;2023-11-18T00:20:36;35.75;;;20.48;;
59786;SDS011;45672;51.612;5.536;2023-11-18T00:23:02;37.33;;;21.27;;
59786;SDS011;45672;51.612;5.536;2023-11-18T00:25:29;39.85;;;21.00;;
59786;SDS011;45672;51.612;5.536;2023-11-18T00:27:55;36.10;;;20.95;;
59786;SDS011;45672;51.612;5.536;2023-11-18T00:30:20;38.38;;;21.55;;
59786;SDS011;45672;51.612;5.536;2023-11-18T00:32:46;34.95;;;20.63;;
59786;SDS011;45672;51.612;5.536;2023-11-18T00:35:11;34.55;;;21.02;;
59786;SDS011;45672;51.612;5.536;2023-11-18T00:37:36;34.97;;;21.63;;
59786;SDS011;45672;51.612;5.536;2023-11-18T00:40:02;34.67;;;21.35;;
59786;SDS011;45672;51.612;5.536;2023-11-18T00:42:28;36.90;;;22.08;;
59786;SDS011;45672;51.612;5.536;2023-11-18T00:44:53;33.22;;;21.27;;
59786;SDS011;45672;51.612;5.536;2023-11-18T00:47:20;47.08;;;22.52;;
59786;SDS011;45672;51.612;5.536;2023-11-18T00:49:48;34.30;;;20.77;;
59786;SDS011;45672;51.612;5.536;2023-11-18T00:52:14;35.17;;;22.33;;
59786;SDS011;45672;51.612;5.536;2023-11-18T00:54:39;36.83;;;20.83;;
59786;SDS011;45672;51.612;5.536;2023-11-18T00:57:05;38.50;;;21.48;;
59786;SDS011;45672;51.612;5.536;2023-11-18T00:59:30;37.40;;;21.60;;
59786;SDS011;45672;51.612;5.536;2023-11-18T01:01:56;36.83;;;21.75;;
59786;SDS011;45672;51.612;5.536;2023-11-18T01:04:21;35.42;;;20.58;;
59786;SDS011;45672;51.612;5.536;2023-11-18T01:06:46;33.40;;;21.10;;
59786;SDS011;45672;51.612;5.536;2023-11-18T01:09:13;38.00;;;20.98;;
59786;SDS011;45672;51.612;5.536;2023-11-18T01:11:39;34.42;;;20.52;;
59786;SDS011;45672;51.612;5.536;2023-11-18T01:14:05;37.15;;;20.42;;
59786;SDS011;45672;51.612;5.536;2023-11-18T01:16:31;32.28;;;20.50;;
59786;SDS011;45672;51.612;5.536;2023-11-18T01:18:56;35.35;;;21.67;;
59786;SDS011;45672;51.612;5.536;2023-11-18T01:21:21;33.78;;;20.55;;
59786;SDS011;45672;51.612;5.536;2023-11-18T01:23:48;37.35;;;21.73;;
59786;SDS011;45672;51.612;5.536;2023-11-18T01:26:13;33.63;;;21.20;;
59786;SDS011;45672;51.612;5.536;2023-11-18T01:28:40;35.10;;;21.23;;
59786;SDS011;45672;51.612;5.536;2023-11-18T01:31:08;34.92;;;21.30;;
59786;SDS011;45672;51.612;5.536;2023-11-18T01:33:34;38.25;;;21.90;;
59786;SDS011;45672;51.612;5.536;2023-11-18T01:36:02;34.88;;;20.70;;
59786;SDS011;45672;51.612;5.536;2023-11-18T01:38:29;34.53;;;21.60;;
59786;SDS011;45672;51.612;5.536;2023-11-18T01:40:55;33.63;;;21.55;;
59786;SDS011;45672;51.612;5.536;2023-11-18T01:43:21;36.03;;;22.13;;
59786;SDS011;45672;51.612;5.536;2023-11-18T01:45:47;33.85;;;21.30;;
59786;SDS011;45672;51.612;5.536;2023-11-18T01:48:13;37.03;;;22.27;;
59786;SDS011;45672;51.612;5.536;2023-11-18T01:50:39;32.97;;;21.90;;
59786;SDS011;45672;51.612;5.536;2023-11-18T01:53:06;34.03;;;21.25;;
59786;SDS011;45672;51.612;5.536;2023-11-18T01:55:33;35.72;;;22.05;;
59786;SDS011;45672;51.612;5.536;2023-11-18T01:57:59;34.47;;;20.77;;
59786;SDS011;45672;51.612;5.536;2023-11-18T02:00:28;35.97;;;22.58;;
59786;SDS011;45672;51.612;5.536;2023-11-18T02:02:55;33.33;;;21.65;;
59786;SDS011;45672;51.612;5.536;2023-11-18T02:05:21;32.67;;;21.52;;
59786;SDS011;45672;51.612;5.536;2023-11-18T02:07:47;39.33;;;22.42;;
59786;SDS011;45672;51.612;5.536;2023-11-18T02:10:12;35.55;;;21.55;;
59786;SDS011;45672;51.612;5.536;2023-11-18T02:12:43;39.03;;;22.95;;
59786;SDS011;45672;51.612;5.536;2023-11-18T02:15:16;38.55;;;23.50;;
59786;SDS011;45672;51.612;5.536;2023-11-18T02:17:42;43.42;;;23.02;;
59786;SDS011;45672;51.612;5.536;2023-11-18T02:20:10;35.60;;;23.25;;
59786;SDS011;45672;51.612;5.536;2023-11-18T02:22:41;42.30;;;23.00;;
59786;SDS011;45672;51.612;5.536;2023-11-18T02:25:08;39.15;;;22.88;;
59786;SDS011;45672;51.612;5.536;2023-11-18T02:27:35;35.50;;;22.90;;
59786;SDS011;45672;51.612;5.536;2023-11-18T02:30:02;36.92;;;22.35;;
59786;SDS011;45672;51.612;5.536;2023-11-18T02:35:30;37.22;;;22.23;;
59786;SDS011;45672;51.612;5.536;2023-11-18T02:38:02;35.42;;;22.73;;
59786;SDS011;45672;51.612;5.536;2023-11-18T02:40:35;36.83;;;22.67;;
59786;SDS011;45672;51.612;5.536;2023-11-18T02:43:03;38.03;;;22.80;;
59786;SDS011;45672;51.612;5.536;2023-11-18T02:45:30;38.38;;;22.50;;
59786;SDS011;45672;51.612;5.536;2023-11-18T02:47:57;35.45;;;23.40;;
59786;SDS011;45672;51.612;5.536;2023-11-18T02:50:25;33.85;;;22.17;;
59786;SDS011;45672;51.612;5.536;2023-11-18T02:52:52;36.65;;;22.20;;
59786;SDS011;45672;51.612;5.536;2023-11-18T02:55:18;34.20;;;22.60;;
59786;SDS011;45672;51.612;5.536;2023-11-18T02:57:46;35.92;;;21.35;;
59786;SDS011;45672;51.612;5.536;2023-11-18T03:00:12;40.53;;;21.75;;
59786;SDS011;45672;51.612;5.536;2023-11-18T03:02:43;34.97;;;22.67;;
59786;SDS011;45672;51.612;5.536;2023-11-18T03:05:08;34.78;;;21.83;;
59786;SDS011;45672;51.612;5.536;2023-11-18T03:07:37;33.95;;;21.35;;
59786;SDS011;45672;51.612;5.536;2023-11-18T03:10:03;36.00;;;21.88;;
59786;SDS011;45672;51.612;5.536;2023-11-18T03:12:34;39.38;;;22.58;;
59786;SDS011;45672;51.612;5.536;2023-11-18T03:15:00;37.42;;;22.95;;
59786;SDS011;45672;51.612;5.536;2023-11-18T03:17:26;32.97;;;21.33;;
59786;SDS011;45672;51.612;5.536;2023-11-18T03:19:51;39.38;;;22.92;;
59786;SDS011;45672;51.612;5.536;2023-11-18T03:22:16;40.10;;;23.17;;
59786;SDS011;45672;51.612;5.536;2023-11-18T03:24:42;34.53;;;22.88;;
59786;SDS011;45672;51.612;5.536;2023-11-18T03:27:07;35.33;;;22.88;;
59786;SDS011;45672;51.612;5.536;2023-11-18T03:29:34;36.53;;;22.85;;
59786;SDS011;45672;51.612;5.536;2023-11-18T03:31:59;35.33;;;21.73;;
59786;SDS011;45672;51.612;5.536;2023-11-18T03:34:24;35.83;;;21.77;;
59786;SDS011;45672;51.612;5.536;2023-11-18T03:36:50;32.30;;;21.80;;
59786;SDS011;45672;51.612;5.536;2023-11-18T03:39:16;36.47;;;21.65;;
59786;SDS011;45672;51.612;5.536;2023-11-18T03:41:41;32.42;;;22.05;;
59786;SDS011;45672;51.612;5.536;2023-11-18T03:44:09;34.72;;;21.95;;
59786;SDS011;45672;51.612;5.536;2023-11-18T03:46:36;34.63;;;22.77;;
59786;SDS011;45672;51.612;5.536;2023-11-18T03:49:02;34.83;;;22.27;;
59786;SDS011;45672;51.612;5.536;2023-11-18T03:51:28;34.10;;;22.27;;
59786;SDS011;45672;51.612;5.536;2023-11-18T03:53:53;34.90;;;22.13;;
59786;SDS011;45672;51.612;5.536;2023-11-18T03:56:19;34.83;;;22.15;;
59786;SDS011;45672;51.612;5.536;2023-11-18T03:58:44;37.63;;;22.20;;
59786;SDS011;45672;51.612;5.536;2023-11-18T04:01:18;38.92;;;22.42;;
59786;SDS011;45672;51.612;5.536;2023-11-18T04:03:48;31.67;;;20.65;;
59786;SDS011;45672;51.612;5.536;2023-11-18T04:06:13;33.88;;;21.02;;
59786;SDS011;45672;51.612;5.536;2023-11-18T04:08:42;37.13;;;21.63;;
59786;SDS011;45672;51.612;5.536;2023-11-18T04:11:11;33.60;;;22.00;;
59786;SDS011;45672;51.612;5.536;2023-11-18T04:13:39;32.30;;;20.95;;
59786;SDS011;45672;51.612;5.536;2023-11-18T04:16:10;34.67;;;20.85;;
59786;SDS011;45672;51.612;5.536;2023-11-18T04:18:40;32.85;;;20.55;;
59786;SDS011;45672;51.612;5.536;2023-11-18T04:21:07;34.88;;;20.55;;
59786;SDS011;45672;51.612;5.536;2023-11-18T04:23:37;34.22;;;20.60;;
59786;SDS011;45672;51.612;5.536;2023-11-18T04:26:06;34.20;;;20.98;;
59786;SDS011;45672;51.612;5.536;2023-11-18T04:28:35;32.42;;;20.63;;
59786;SDS011;45672;51.612;5.536;2023-11-18T04:31:01;33.67;;;20.73;;
59786;SDS011;45672;51.612;5.536;2023-11-18T04:33:27;36.53;;;21.27;;
59786;SDS011;45672;51.612;5.536;2023-11-18T04:35:54;33.25;;;20.63;;
59786;SDS011;45672;51.612;5.536;2023-11-18T04:38:22;34.33;;;22.10;;
59786;SDS011;45672;51.612;5.536;2023-11-18T04:40:47;34.05;;;21.42;;
59786;SDS011;45672;51.612;5.536;2023-11-18T04:43:13;35.58;;;21.30;;
59786;SDS011;45672;51.612;5.536;2023-11-18T04:45:38;37.08;;;21.25;;
59786;SDS011;45672;51.612;5.536;2023-11-18T04:48:04;37.05;;;21.60;;
59786;SDS011;45672;51.612;5.536;2023-11-18T04:50:30;33.05;;;21.23;;
59786;SDS011;45672;51.612;5.536;2023-11-18T04:52:57;30.83;;;20.75;;
59786;SDS011;45672;51.612;5.536;2023-11-18T04:55:23;35.88;;;21.70;;
59786;SDS011;45672;51.612;5.536;2023-11-18T04:57:49;30.77;;;19.95;;
59786;SDS011;45672;51.612;5.536;2023-11-18T05:00:14;36.47;;;21.55;;
59786;SDS011;45672;51.612;5.536;2023-11-18T05:02:42;36.72;;;21.92;;
59786;SDS011;45672;51.612;5.536;2023-11-18T05:05:09;35.05;;;20.60;;
59786;SDS011;45672;51.612;5.536;2023-11-18T05:07:36;33.95;;;20.13;;
59786;SDS011;45672;51.612;5.536;2023-11-18T05:10:01;33.97;;;20.52;;
59786;SDS011;45672;51.612;5.536;2023-11-18T05:12:28;33.20;;;21.95;;
59786;SDS011;45672;51.612;5.536;2023-11-18T05:14:54;31.75;;;20.58;;
59786;SDS011;45672;51.612;5.536;2023-11-18T05:17:20;33.10;;;20.40;;
59786;SDS011;45672;51.612;5.536;2023-11-18T05:19:46;33.83;;;20.08;;
59786;SDS011;45672;51.612;5.536;2023-11-18T05:22:12;35.53;;;19.92;;
59786;SDS011;45672;51.612;5.536;2023-11-18T05:24:37;33.47;;;20.33;;
59786;SDS011;45672;51.612;5.536;2023-11-18T05:27:03;34.50;;;19.90;;
59786;SDS011;45672;51.612;5.536;2023-11-18T05:29:28;32.65;;;20.00;;
59786;SDS011;45672;51.612;5.536;2023-11-18T05:31:54;33.83;;;19.90;;
59786;SDS011;45672;51.612;5.536;2023-11-18T05:34:22;33.35;;;18.75;;
59786;SDS011;45672;51.612;5.536;2023-11-18T05:36:47;34.00;;;19.83;;
59786;SDS011;45672;51.612;5.536;2023-11-18T05:39:13;28.17;;;18.10;;
59786;SDS011;45672;51.612;5.536;2023-11-18T05:41:40;32.83;;;18.75;;
59786;SDS011;45672;51.612;5.536;2023-11-18T05:44:06;31.80;;;19.48;;
59786;SDS011;45672;51.612;5.536;2023-11-18T05:46:33;32.08;;;18.55;;
59786;SDS011;45672;51.612;5.536;2023-11-18T05:49:03;27.77;;;18.30;;
59786;SDS011;45672;51.612;5.536;2023-11-18T05:51:32;28.55;;;18.15;;
59786;SDS011;45672;51.612;5.536;2023-11-18T05:53:58;27.00;;;18.30;;
59786;SDS011;45672;51.612;5.536;2023-11-18T05:56:23;27.27;;;17.65;;
59786;SDS011;45672;51.612;5.536;2023-11-18T05:58:49;30.25;;;18.30;;
59786;SDS011;45672;51.612;5.536;2023-11-18T06:01:15;28.33;;;17.25;;
59786;SDS011;45672;51.612;5.536;2023-11-18T06:03:43;27.38;;;18.17;;
59786;SDS011;45672;51.612;5.536;2023-11-18T06:06:10;25.45;;;17.55;;
59786;SDS011;45672;51.612;5.536;2023-11-18T06:08:37;28.17;;;17.35;;
59786;SDS011;45672;51.612;5.536;2023-11-18T06:11:09;23.77;;;16.55;;
59786;SDS011;45672;51.612;5.536;2023-11-18T06:16:23;26.45;;;16.17;;
59786;SDS011;45672;51.612;5.536;2023-11-18T06:18:50;19.13;;;15.02;;
59786;SDS011;45672;51.612;5.536;2023-11-18T06:21:19;26.30;;;15.50;;
59786;SDS011;45672;51.612;5.536;2023-11-18T06:23:49;23.80;;;16.13;;
59786;SDS011;45672;51.612;5.536;2023-11-18T06:26:15;25.33;;;16.05;;
59786;SDS011;45672;51.612;5.536;2023-11-18T06:28:41;26.00;;;16.60;;
59786;SDS011;45672;51.612;5.536;2023-11-18T06:31:08;27.85;;;16.08;;
59786;SDS011;45672;51.612;5.536;2023-11-18T06:33:38;21.38;;;15.60;;
59786;SDS011;45672;51.612;5.536;2023-11-18T06:38:38;22.33;;;15.00;;
59786;SDS011;45672;51.612;5.536;2023-11-18T06:41:04;23.33;;;14.68;;
59786;SDS011;45672;51.612;5.536;2023-11-18T06:43:30;23.27;;;14.02;;
59786;SDS011;45672;51.612;5.536;2023-11-18T06:46:11;20.90;;;14.18;;
59786;SDS011;45672;51.612;5.536;2023-11-18T06:48:39;20.00;;;13.75;;
59786;SDS011;45672;51.612;5.536;2023-11-18T06:51:05;20.02;;;13.85;;
59786;SDS011;45672;51.612;5.536;2023-11-18T06:53:33;18.80;;;13.60;;
59786;SDS011;45672;51.612;5.536;2023-11-18T06:55:58;23.50;;;14.07;;
59786;SDS011;45672;51.612;5.536;2023-11-18T06:58:24;19.75;;;12.60;;
59786;SDS011;45672;51.612;5.536;2023-11-18T07:00:49;20.15;;;13.65;;
59786;SDS011;45672;51.612;5.536;2023-11-18T07:03:14;21.00;;;13.38;;
59786;SDS011;45672;51.612;5.536;2023-11-18T07:05:41;22.67;;;12.25;;
59786;SDS011;45672;51.612;5.536;2023-11-18T07:08:06;22.15;;;13.20;;
59786;SDS011;45672;51.612;5.536;2023-11-18T07:10:33;18.80;;;12.63;;
59786;SDS011;45672;51.612;5.536;2023-11-18T07:13:00;20.83;;;13.18;;
59786;SDS011;45672;51.612;5.536;2023-11-18T07:15:25;18.80;;;12.63;;
59786;SDS011;45672;51.612;5.536;2023-11-18T07:17:50;17.05;;;11.77;;
59786;SDS011;45672;51.612;5.536;2023-11-18T07:20:16;14.80;;;12.60;;
59786;SDS011;45672;51.612;5.536;2023-11-18T07:22:42;22.38;;;12.38;;
59786;SDS011;45672;51.612;5.536;2023-11-18T07:25:07;19.63;;;13.32;;
59786;SDS011;45672;51.612;5.536;2023-11-18T07:27:34;17.02;;;12.10;;
59786;SDS011;45672;51.612;5.536;2023-11-18T07:30:00;16.60;;;11.82;;
59786;SDS011;45672;51.612;5.536;2023-11-18T07:32:25;16.67;;;12.35;;
59786;SDS011;45672;51.612;5.536;2023-11-18T07:34:51;14.70;;;11.95;;
59786;SDS011;45672;51.612;5.536;2023-11-18T07:37:16;15.40;;;12.10;;
59786;SDS011;45672;51.612;5.536;2023-11-18T07:39:42;19.27;;;12.45;;
59786;SDS011;45672;51.612;5.536;2023-11-18T07:42:11;21.52;;;13.77;;
59786;SDS011;45672;51.612;5.536;2023-11-18T07:44:37;19.27;;;12.10;;
59786;SDS011;45672;51.612;5.536;2023-11-18T07:47:04;29.52;;;16.20;;
59786;SDS011;45672;51.612;5.536;2023-11-18T07:49:30;26.70;;;19.85;;
59786;SDS011;45672;51.612;5.536;2023-11-18T07:51:56;17.90;;;12.13;;
59786;SDS011;45672;51.612;5.536;2023-11-18T07:54:22;15.90;;;10.68;;
59786;SDS011;45672;51.612;5.536;2023-11-18T07:56:48;17.92;;;10.82;;
59786;SDS011;45672;51.612;5.536;2023-11-18T07:59:14;18.67;;;11.00;;
59786;SDS011;45672;51.612;5.536;2023-11-18T08:01:44;18.23;;;13.10;;
59786;SDS011;45672;51.612;5.536;2023-11-18T08:04:11;16.05;;;9.95;;
59786;SDS011;45672;51.612;5.536;2023-11-18T08:06:40;12.52;;;9.10;;
59786;SDS011;45672;51.612;5.536;2023-11-18T08:09:06;14.27;;;9.13;;
59786;SDS011;45672;51.612;5.536;2023-11-18T08:11:39;15.00;;;9.77;;
59786;SDS011;45672;51.612;5.536;2023-11-18T08:14:09;11.00;;;8.30;;
59786;SDS011;45672;51.612;5.536;2023-11-18T08:16:34;12.55;;;7.80;;
59786;SDS011;45672;51.612;5.536;2023-11-18T08:19:01;12.93;;;8.13;;
59786;SDS011;45672;51.612;5.536;2023-11-18T08:21:33;12.95;;;8.30;;
59786;SDS011;45672;51.612;5.536;2023-11-18T08:23:58;13.98;;;8.23;;
59786;SDS011;45672;51.612;5.536;2023-11-18T08:26:25;11.85;;;7.28;;
59786;SDS011;45672;51.612;5.536;2023-11-18T08:28:50;10.43;;;6.82;;
59786;SDS011;45672;51.612;5.536;2023-11-18T08:31:16;12.85;;;7.32;;
59786;SDS011;45672;51.612;5.536;2023-11-18T08:33:42;14.50;;;7.40;;
59786;SDS011;45672;51.612;5.536;2023-11-18T08:36:08;12.55;;;7.07;;
59786;SDS011;45672;51.612;5.536;2023-11-18T08:38:33;13.43;;;7.57;;
59786;SDS011;45672;51.612;5.536;2023-11-18T08:41:00;15.88;;;7.15;;
59786;SDS011;45672;51.612;5.536;2023-11-18T08:43:25;10.00;;;6.60;;
59786;SDS011;45672;51.612;5.536;2023-11-18T08:45:53;17.42;;;7.07;;
59786;SDS011;45672;51.612;5.536;2023-11-18T08:48:19;19.08;;;7.20;;
59786;SDS011;45672;51.612;5.536;2023-11-18T08:50:45;15.18;;;6.82;;
59786;SDS011;45672;51.612;5.536;2023-11-18T08:53:11;7.15;;;6.38;;
59786;SDS011;45672;51.612;5.536;2023-11-18T08:55:37;10.35;;;6.53;;
59786;SDS011;45672;51.612;5.536;2023-11-18T08:58:15;11.65;;;6.30;;
59786;SDS011;45672;51.612;5.536;2023-11-18T09:00:54;8.68;;;6.20;;
59786;SDS011;45672;51.612;5.536;2023-11-18T09:03:22;10.77;;;5.55;;
59786;SDS011;45672;51.612;5.536;2023-11-18T09:05:54;13.35;;;7.13;;
59786;SDS011;45672;51.612;5.536;2023-11-18T09:10:59;12.60;;;5.85;;
59786;SDS011;45672;51.612;5.536;2023-11-18T09:13:26;14.15;;;6.20;;
59786;SDS011;45672;51.612;5.536;2023-11-18T09:15:57;11.68;;;6.13;;
59786;SDS011;45672;51.612;5.536;2023-11-18T09:18:25;10.27;;;6.30;;
59786;SDS011;45672;51.612;5.536;2023-11-18T09:20:52;9.68;;;6.10;;
59786;SDS011;45672;51.612;5.536;2023-11-18T09:23:19;11.68;;;5.18;;
59786;SDS011;45672;51.612;5.536;2023-11-18T09:25:48;13.88;;;5.78;;
59786;SDS011;45672;51.612;5.536;2023-11-18T09:28:15;10.05;;;5.32;;
59786;SDS011;45672;51.612;5.536;2023-11-18T09:30:41;5.97;;;4.95;;
59786;SDS011;45672;51.612;5.536;2023-11-18T09:33:17;8.77;;;6.38;;
59786;SDS011;45672;51.612;5.536;2023-11-18T09:35:51;10.75;;;5.18;;
59786;SDS011;45672;51.612;5.536;2023-11-18T09:38:17;11.38;;;5.30;;
59786;SDS011;45672;51.612;5.536;2023-11-18T09:40:42;11.15;;;5.85;;
59786;SDS011;45672;51.612;5.536;2023-11-18T09:43:11;10.52;;;5.60;;
59786;SDS011;45672;51.612;5.536;2023-11-18T09:45:39;10.35;;;6.35;;
59786;SDS011;45672;51.612;5.536;2023-11-18T09:48:04;8.82;;;5.13;;
59786;SDS011;45672;51.612;5.536;2023-11-18T09:50:32;11.68;;;6.07;;
59786;SDS011;45672;51.612;5.536;2023-11-18T09:52:58;8.73;;;5.20;;
59786;SDS011;45672;51.612;5.536;2023-11-18T09:55:36;10.55;;;6.20;;
59786;SDS011;45672;51.612;5.536;2023-11-18T09:58:06;11.48;;;5.25;;
59786;SDS011;45672;51.612;5.536;2023-11-18T10:00:38;10.32;;;5.80;;
59786;SDS011;45672;51.612;5.536;2023-11-18T10:03:07;11.05;;;5.80;;
59786;SDS011;45672;51.612;5.536;2023-11-18T10:05:35;15.45;;;6.35;;
59786;SDS011;45672;51.612;5.536;2023-11-18T10:08:02;8.65;;;5.45;;
59786;SDS011;45672;51.612;5.536;2023-11-18T10:10:30;12.13;;;6.40;;
59786;SDS011;45672;51.612;5.536;2023-11-18T10:13:01;8.00;;;5.22;;
59786;SDS011;45672;51.612;5.536;2023-11-18T10:15:29;9.77;;;6.90;;
59786;SDS011;45672;51.612;5.536;2023-11-18T10:17:56;12.82;;;6.20;;
59786;SDS011;45672;51.612;5.536;2023-11-18T10:23:07;14.75;;;7.13;;
59786;SDS011;45672;51.612;5.536;2023-11-18T10:25:35;10.30;;;6.28;;
59786;SDS011;45672;51.612;5.536;2023-11-18T10:28:05;12.65;;;6.10;;
59786;SDS011;45672;51.612;5.536;2023-11-18T10:30:31;10.18;;;6.30;;
59786;SDS011;45672;51.612;5.536;2023-11-18T10:32:58;11.27;;;6.78;;
59786;SDS011;45672;51.612;5.536;2023-11-18T10:35:31;11.85;;;5.88;;
59786;SDS011;45672;51.612;5.536;2023-11-18T10:38:02;8.13;;;6.00;;
59786;SDS011;45672;51.612;5.536;2023-11-18T10:40:31;9.48;;;5.38;;
59786;SDS011;45672;51.612;5.536;2023-11-18T10:43:02;9.05;;;5.75;;
59786;SDS011;45672;51.612;5.536;2023-11-18T10:45:34;12.02;;;5.93;;
59786;SDS011;45672;51.612;5.536;2023-11-18T10:48:04;11.35;;;5.22;;
59786;SDS011;45672;51.612;5.536;2023-11-18T10:50:31;9.93;;;6.03;;
59786;SDS011;45672;51.612;5.536;2023-11-18T10:52:58;10.52;;;6.85;;
59786;SDS011;45672;51.612;5.536;2023-11-18T10:55:37;10.07;;;6.25;;
59786;SDS011;45672;51.612;5.536;2023-11-18T10:58:03;9.85;;;6.50;;
59786;SDS011;45672;51.612;5.536;2023-11-18T11:00:45;13.00;;;5.68;;
59786;SDS011;45672;51.612;5.536;2023-11-18T11:03:16;33.03;;;18.23;;
59786;SDS011;45672;51.612;5.536;2023-11-18T11:05:43;12.70;;;8.18;;
59786;SDS011;45672;51.612;5.536;2023-11-18T11:08:09;20.75;;;15.85;;
59786;SDS011;45672;51.612;5.536;2023-11-18T11:10:38;16.77;;;6.57;;
59786;SDS011;45672;51.612;5.536;2023-11-18T11:13:07;10.68;;;6.60;;
59786;SDS011;45672;51.612;5.536;2023-11-18T11:15:34;17.13;;;8.27;;
59786;SDS011;45672;51.612;5.536;2023-11-18T11:18:07;12.60;;;5.88;;
59786;SDS011;45672;51.612;5.536;2023-11-18T11:20:41;8.73;;;5.45;;
59786;SDS011;45672;51.612;5.536;2023-11-18T11:23:19;10.23;;;6.38;;
59786;SDS011;45672;51.612;5.536;2023-11-18T11:28:42;12.95;;;8.57;;
59786;SDS011;45672;51.612;5.536;2023-11-18T11:31:23;11.48;;;5.63;;
59786;SDS011;45672;51.612;5.536;2023-11-18T11:33:57;10.18;;;6.22;;
59786;SDS011;45672;51.612;5.536;2023-11-18T11:36:33;12.70;;;5.22;;
59786;SDS011;45672;51.612;5.536;2023-11-18T11:39:03;14.52;;;5.68;;
59786;SDS011;45672;51.612;5.536;2023-11-18T11:41:31;13.82;;;6.43;;
59786;SDS011;45672;51.612;5.536;2023-11-18T11:43:59;12.32;;;5.60;;
59786;SDS011;45672;51.612;5.536;2023-11-18T11:46:26;15.32;;;8.90;;
59786;SDS011;45672;51.612;5.536;2023-11-18T11:51:30;18.42;;;6.53;;
59786;SDS011;45672;51.612;5.536;2023-11-18T11:54:04;8.20;;;5.15;;
59786;SDS011;45672;51.612;5.536;2023-11-18T11:56:46;10.60;;;5.32;;
59786;SDS011;45672;51.612;5.536;2023-11-18T11:59:12;10.77;;;4.80;;
59786;SDS011;45672;51.612;5.536;2023-11-18T12:01:40;9.73;;;5.38;;
59786;SDS011;45672;51.612;5.536;2023-11-18T12:04:11;12.43;;;8.60;;
59786;SDS011;45672;51.612;5.536;2023-11-18T12:06:45;12.32;;;5.63;;
59786;SDS011;45672;51.612;5.536;2023-11-18T12:09:13;16.25;;;5.10;;
59786;SDS011;45672;51.612;5.536;2023-11-18T12:11:44;12.63;;;4.63;;
59786;SDS011;45672;51.612;5.536;2023-11-18T12:14:14;12.48;;;5.45;;
59786;SDS011;45672;51.612;5.536;2023-11-18T12:16:58;13.85;;;5.70;;
59786;SDS011;45672;51.612;5.536;2023-11-18T12:19:35;16.50;;;4.95;;
59786;SDS011;45672;51.612;5.536;2023-11-18T12:22:16;14.43;;;4.53;;
59786;SDS011;45672;51.612;5.536;2023-11-18T12:30:05;11.77;;;4.93;;
59786;SDS011;45672;51.612;5.536;2023-11-18T12:35:26;9.85;;;4.70;;
59786;SDS011;45672;51.612;5.536;2023-11-18T12:40:50;9.73;;;4.63;;
59786;SDS011;45672;51.612;5.536;2023-11-18T12:43:17;6.53;;;4.35;;
59786;SDS011;45672;51.612;5.536;2023-11-18T12:48:54;10.13;;;4.78;;
59786;SDS011;45672;51.612;5.536;2023-11-18T12:51:22;12.43;;;3.88;;
59786;SDS011;45672;51.612;5.536;2023-11-18T12:53:48;6.35;;;4.75;;
59786;SDS011;45672;51.612;5.536;2023-11-18T12:56:19;8.88;;;4.53;;
59786;SDS011;45672;51.612;5.536;2023-11-18T12:58:48;9.98;;;5.00;;
59786;SDS011;45672;51.612;5.536;2023-11-18T13:01:14;7.03;;;3.80;;
59786;SDS011;45672;51.612;5.536;2023-11-18T13:03:40;7.57;;;3.60;;
59786;SDS011;45672;51.612;5.536;2023-11-18T13:06:08;7.00;;;3.50;;
59786;SDS011;45672;51.612;5.536;2023-11-18T13:08:34;7.20;;;3.67;;
59786;SDS011;45672;51.612;5.536;2023-11-18T13:10:59;4.95;;;3.33;;
59786;SDS011;45672;51.612;5.536;2023-11-18T13:13:28;6.65;;;3.60;;
59786;SDS011;45672;51.612;5.536;2023-11-18T13:15:54;5.40;;;3.55;;
59786;SDS011;45672;51.612;5.536;2023-11-18T13:18:20;6.68;;;4.05;;
59786;SDS011;45672;51.612;5.536;2023-11-18T13:20:55;6.35;;;3.45;;
59786;SDS011;45672;51.612;5.536;2023-11-18T13:23:26;7.63;;;3.55;;
59786;SDS011;45672;51.612;5.536;2023-11-18T13:25:58;5.07;;;3.60;;
59786;SDS011;45672;51.612;5.536;2023-11-18T13:28:28;7.78;;;3.60;;
59786;SDS011;45672;51.612;5.536;2023-11-18T13:30:54;5.63;;;3.67;;
59786;SDS011;45672;51.612;5.536;2023-11-18T13:33:20;4.50;;;3.78;;
59786;SDS011;45672;51.612;5.536;2023-11-18T13:35:46;5.88;;;3.58;;
59786;SDS011;45672;51.612;5.536;2023-11-18T13:38:11;4.90;;;3.33;;
59786;SDS011;45672;51.612;5.536;2023-11-18T13:40:44;5.57;;;4.15;;
59786;SDS011;45672;51.612;5.536;2023-11-18T13:43:11;4.30;;;3.22;;
59786;SDS011;45672;51.612;5.536;2023-11-18T13:45:36;8.55;;;3.72;;
59786;SDS011;45672;51.612;5.536;2023-11-18T13:48:03;5.32;;;3.90;;
59786;SDS011;45672;51.612;5.536;2023-11-18T13:50:29;12.68;;;8.40;;
59786;SDS011;45672;51.612;5.536;2023-11-18T13:52:56;8.65;;;5.57;;
59786;SDS011;45672;51.612;5.536;2023-11-18T13:55:22;5.70;;;4.40;;
59786;SDS011;45672;51.612;5.536;2023-11-18T13:57:56;7.28;;;4.00;;
59786;SDS011;45672;51.612;5.536;2023-11-18T14:00:23;7.68;;;5.13;;
59786;SDS011;45672;51.612;5.536;2023-11-18T14:02:51;5.38;;;4.15;;
59786;SDS011;45672;51.612;5.536;2023-11-18T14:05:18;7.30;;;3.80;;
59786;SDS011;45672;51.612;5.536;2023-11-18T14:07:51;4.25;;;3.75;;
59786;SDS011;45672;51.612;5.536;2023-11-18T14:10:17;9.68;;;3.88;;
59786;SDS011;45672;51.612;5.536;2023-11-18T14:13:03;8.45;;;3.78;;
59786;SDS011;45672;51.612;5.536;2023-11-18T14:15:31;4.57;;;3.67;;
59786;SDS011;45672;51.612;5.536;2023-11-18T14:18:00;7.95;;;7.15;;
59786;SDS011;45672;51.612;5.536;2023-11-18T14:20:26;11.10;;;7.60;;
59786;SDS011;45672;51.612;5.536;2023-11-18T14:22:51;6.50;;;4.78;;
59786;SDS011;45672;51.612;5.536;2023-11-18T14:25:17;9.27;;;6.60;;
59786;SDS011;45672;51.612;5.536;2023-11-18T14:27:42;15.88;;;6.28;;
59786;SDS011;45672;51.612;5.536;2023-11-18T14:30:08;23.05;;;8.63;;
59786;SDS011;45672;51.612;5.536;2023-11-18T14:32:34;4.32;;;4.03;;
59786;SDS011;45672;51.612;5.536;2023-11-18T14:35:00;11.38;;;5.80;;
59786;SDS011;45672;51.612;5.536;2023-11-18T14:37:25;5.22;;;4.70;;
59786;SDS011;45672;51.612;5.536;2023-11-18T14:39:51;3.55;;;3.25;;
59786;SDS011;45672;51.612;5.536;2023-11-18T14:42:17;4.78;;;3.35;;
59786;SDS011;45672;51.612;5.536;2023-11-18T14:44:46;3.83;;;3.53;;
59786;SDS011;45672;51.612;5.536;2023-11-18T14:47:11;3.00;;;2.80;;
59786;SDS011;45672;51.612;5.536;2023-11-18T14:49:37;4.35;;;3.08;;
59786;SDS011;45672;51.612;5.536;2023-11-18T14:52:02;5.25;;;3.80;;
59786;SDS011;45672;51.612;5.536;2023-11-18T14:54:28;4.25;;;3.20;;
59786;SDS011;45672;51.612;5.536;2023-11-18T14:56:55;5.45;;;5.05;;
59786;SDS011;45672;51.612;5.536;2023-11-18T14:59:20;4.43;;;3.80;;
59786;SDS011;45672;51.612;5.536;2023-11-18T15:01:47;4.15;;;3.03;;
59786;SDS011;45672;51.612;5.536;2023-11-18T15:04:13;3.17;;;2.92;;
59786;SDS011;45672;51.612;5.536;2023-11-18T15:06:38;3.47;;;3.25;;